sensor_id;sensor_type;location;lat;lon;timestamp;temperature;humidity
45807;DHT22;31507;51.494;7.518;2022-07-23T00:00:54;15.40;99.90
45807;DHT22;31507;51.494;7.518;2022-07-23T00:03:20;15.40;99.90
45807;DHT22;31507;51.494;7.518;2022-07-23T00:05:45;15.30;99.90
45807;DHT22;31507;51.494;7.518;2022-07-23T00:08:11;15.20;99.90
45807;DHT22;31507;51.494;7.518;2022-07-23T00:10:37;15.20;99.90
45807;DHT22;31507;51.494;7.518;2022-07-23T00:13:03;15.10;99.90
45807;DHT22;31507;51.494;7.518;2022-07-23T00:15:28;15.10;99.90
45807;DHT22;31507;51.494;7.518;2022-07-23T00:17:54;15.10;99.90
45807;DHT22;31507;51.494;7.518;2022-07-23T00:20:20;15.00;99.90
45807;DHT22;31507;51.494;7.518;2022-07-23T00:22:50;15.00;99.90
45807;DHT22;31507;51.494;7.518;2022-07-23T00:25:16;15.00;99.90
45807;DHT22;31507;51.494;7.518;2022-07-23T00:27:42;15.00;99.90
45807;DHT22;31507;51.494;7.518;2022-07-23T00:30:08;14.90;99.90
45807;DHT22;31507;51.494;7.518;2022-07-23T00:32:54;14.90;99.90
45807;DHT22;31507;51.494;7.518;2022-07-23T00:35:23;14.90;99.90
45807;DHT22;31507;51.494;7.518;2022-07-23T00:37:49;14.90;99.90
45807;DHT22;31507;51.494;7.518;2022-07-23T00:40:15;14.90;99.90
45807;DHT22;31507;51.494;7.518;2022-07-23T00:42:41;14.90;99.90
45807;DHT22;31507;51.494;7.518;2022-07-23T00:45:07;14.90;99.90
45807;DHT22;31507;51.494;7.518;2022-07-23T00:47:33;14.90;99.90
45807;DHT22;31507;51.494;7.518;2022-07-23T00:49:59;14.80;99.90
45807;DHT22;31507;51.494;7.518;2022-07-23T00:52:25;14.90;99.90
45807;DHT22;31507;51.494;7.518;2022-07-23T00:54:50;14.90;99.90
45807;DHT22;31507;51.494;7.518;2022-07-23T00:57:16;14.90;99.90
45807;DHT22;31507;51.494;7.518;2022-07-23T00:59:42;14.90;99.90
45807;DHT22;31507;51.494;7.518;2022-07-23T01:02:08;14.90;99.90
45807;DHT22;31507;51.494;7.518;2022-07-23T01:04:34;14.90;99.90
45807;DHT22;31507;51.494;7.518;2022-07-23T01:07:00;14.90;99.90
45807;DHT22;31507;51.494;7.518;2022-07-23T01:09:26;14.80;99.90
45807;DHT22;31507;51.494;7.518;2022-07-23T01:11:56;14.80;99.90
45807;DHT22;31507;51.494;7.518;2022-07-23T01:14:21;14.80;99.90
45807;DHT22;31507;51.494;7.518;2022-07-23T01:16:48;14.80;99.90
45807;DHT22;31507;51.494;7.518;2022-07-23T01:19:15;14.80;99.90
45807;DHT22;31507;51.494;7.518;2022-07-23T01:21:43;14.80;99.90
45807;DHT22;31507;51.494;7.518;2022-07-23T01:24:11;14.80;99.90
45807;DHT22;31507;51.494;7.518;2022-07-23T01:26:38;14.80;99.90
45807;DHT22;31507;51.494;7.518;2022-07-23T01:29:04;14.80;99.90
45807;DHT22;31507;51.494;7.518;2022-07-23T01:31:31;14.80;99.90
45807;DHT22;31507;51.494;7.518;2022-07-23T01:33:56;14.80;99.90
45807;DHT22;31507;51.494;7.518;2022-07-23T01:36:22;14.70;99.90
45807;DHT22;31507;51.494;7.518;2022-07-23T01:38:48;14.80;99.90
45807;DHT22;31507;51.494;7.518;2022-07-23T01:41:13;14.80;99.90
45807;DHT22;31507;51.494;7.518;2022-07-23T01:43:39;14.80;99.90
45807;DHT22;31507;51.494;7.518;2022-07-23T01:46:05;14.70;99.90
45807;DHT22;31507;51.494;7.518;2022-07-23T01:48:30;14.70;99.90
45807;DHT22;31507;51.494;7.518;2022-07-23T01:50:56;14.70;99.90
45807;DHT22;31507;51.494;7.518;2022-07-23T01:53:22;14.80;99.90
45807;DHT22;31507;51.494;7.518;2022-07-23T01:55:48;14.70;99.90
45807;DHT22;31507;51.494;7.518;2022-07-23T01:58:13;14.80;99.90
45807;DHT22;31507;51.494;7.518;2022-07-23T02:00:39;14.70;99.90
45807;DHT22;31507;51.494;7.518;2022-07-23T02:03:05;14.70;99.90
45807;DHT22;31507;51.494;7.518;2022-07-23T02:05:30;14.70;99.90
45807;DHT22;31507;51.494;7.518;2022-07-23T02:07:58;14.70;99.90
45807;DHT22;31507;51.494;7.518;2022-07-23T02:10:24;14.70;99.90
45807;DHT22;31507;51.494;7.518;2022-07-23T02:12:50;14.70;99.90
45807;DHT22;31507;51.494;7.518;2022-07-23T02:15:15;14.70;99.90
45807;DHT22;31507;51.494;7.518;2022-07-23T02:17:41;14.70;99.90
45807;DHT22;31507;51.494;7.518;2022-07-23T02:20:09;14.70;99.90
45807;DHT22;31507;51.494;7.518;2022-07-23T02:22:36;14.70;99.90
45807;DHT22;31507;51.494;7.518;2022-07-23T02:25:05;14.70;99.90
45807;DHT22;31507;51.494;7.518;2022-07-23T02:27:31;14.70;99.90
45807;DHT22;31507;51.494;7.518;2022-07-23T02:29:57;14.70;99.90
45807;DHT22;31507;51.494;7.518;2022-07-23T02:32:23;14.70;99.90
45807;DHT22;31507;51.494;7.518;2022-07-23T02:34:49;14.70;99.90
45807;DHT22;31507;51.494;7.518;2022-07-23T02:37:15;14.70;99.90
45807;DHT22;31507;51.494;7.518;2022-07-23T02:39:40;14.60;99.90
45807;DHT22;31507;51.494;7.518;2022-07-23T02:42:06;14.70;99.90
45807;DHT22;31507;51.494;7.518;2022-07-23T02:44:32;14.70;99.90
45807;DHT22;31507;51.494;7.518;2022-07-23T02:46:58;14.60;99.90
45807;DHT22;31507;51.494;7.518;2022-07-23T02:49:23;14.60;99.90
45807;DHT22;31507;51.494;7.518;2022-07-23T02:51:49;14.60;99.90
45807;DHT22;31507;51.494;7.518;2022-07-23T02:54:15;14.60;99.90
45807;DHT22;31507;51.494;7.518;2022-07-23T02:56:41;14.60;99.90
45807;DHT22;31507;51.494;7.518;2022-07-23T02:59:07;14.60;99.90
45807;DHT22;31507;51.494;7.518;2022-07-23T03:01:32;14.50;99.90
45807;DHT22;31507;51.494;7.518;2022-07-23T03:03:58;14.50;99.90
45807;DHT22;31507;51.494;7.518;2022-07-23T03:06:24;14.40;99.90
45807;DHT22;31507;51.494;7.518;2022-07-23T03:08:49;14.40;99.90
45807;DHT22;31507;51.494;7.518;2022-07-23T03:11:15;14.40;99.90
45807;DHT22;31507;51.494;7.518;2022-07-23T03:13:41;14.30;99.90
45807;DHT22;31507;51.494;7.518;2022-07-23T03:16:07;14.10;99.90
45807;DHT22;31507;51.494;7.518;2022-07-23T03:18:33;14.10;99.90
45807;DHT22;31507;51.494;7.518;2022-07-23T03:20:59;14.00;99.90
45807;DHT22;31507;51.494;7.518;2022-07-23T03:23:25;14.00;99.90
45807;DHT22;31507;51.494;7.518;2022-07-23T03:25:50;14.00;99.90
45807;DHT22;31507;51.494;7.518;2022-07-23T03:28:16;14.00;99.90
45807;DHT22;31507;51.494;7.518;2022-07-23T03:30:43;14.00;99.90
45807;DHT22;31507;51.494;7.518;2022-07-23T03:33:12;14.00;99.90
45807;DHT22;31507;51.494;7.518;2022-07-23T03:35:38;13.90;99.90
45807;DHT22;31507;51.494;7.518;2022-07-23T03:38:03;13.80;99.90
45807;DHT22;31507;51.494;7.518;2022-07-23T03:40:29;13.80;99.90
45807;DHT22;31507;51.494;7.518;2022-07-23T03:42:55;13.80;99.90
45807;DHT22;31507;51.494;7.518;2022-07-23T03:45:20;13.80;99.90
45807;DHT22;31507;51.494;7.518;2022-07-23T03:47:46;13.80;99.90
45807;DHT22;31507;51.494;7.518;2022-07-23T03:50:12;13.80;99.90
45807;DHT22;31507;51.494;7.518;2022-07-23T03:52:37;13.80;99.90
45807;DHT22;31507;51.494;7.518;2022-07-23T03:55:03;13.70;99.90
45807;DHT22;31507;51.494;7.518;2022-07-23T03:57:30;13.70;99.90
45807;DHT22;31507;51.494;7.518;2022-07-23T03:59:55;13.70;99.90
45807;DHT22;31507;51.494;7.518;2022-07-23T04:02:21;13.70;99.90
45807;DHT22;31507;51.494;7.518;2022-07-23T04:04:47;13.70;99.90
45807;DHT22;31507;51.494;7.518;2022-07-23T04:07:13;13.70;99.90
45807;DHT22;31507;51.494;7.518;2022-07-23T04:09:39;13.70;99.90
45807;DHT22;31507;51.494;7.518;2022-07-23T04:12:08;13.70;99.90
45807;DHT22;31507;51.494;7.518;2022-07-23T04:14:34;13.70;99.90
45807;DHT22;31507;51.494;7.518;2022-07-23T04:16:59;13.70;99.90
45807;DHT22;31507;51.494;7.518;2022-07-23T04:19:25;13.70;99.90
45807;DHT22;31507;51.494;7.518;2022-07-23T04:21:51;13.70;99.90
45807;DHT22;31507;51.494;7.518;2022-07-23T04:24:17;13.70;99.90
45807;DHT22;31507;51.494;7.518;2022-07-23T04:26:43;13.80;99.90
45807;DHT22;31507;51.494;7.518;2022-07-23T04:29:09;13.70;99.90
45807;DHT22;31507;51.494;7.518;2022-07-23T04:31:35;13.80;99.90
45807;DHT22;31507;51.494;7.518;2022-07-23T04:34:00;13.90;99.90
45807;DHT22;31507;51.494;7.518;2022-07-23T04:36:26;13.90;99.90
45807;DHT22;31507;51.494;7.518;2022-07-23T04:38:52;14.00;99.90
45807;DHT22;31507;51.494;7.518;2022-07-23T04:41:17;14.10;99.90
45807;DHT22;31507;51.494;7.518;2022-07-23T04:43:43;14.20;99.90
45807;DHT22;31507;51.494;7.518;2022-07-23T04:46:09;14.30;99.90
45807;DHT22;31507;51.494;7.518;2022-07-23T04:48:36;14.30;99.90
45807;DHT22;31507;51.494;7.518;2022-07-23T04:51:01;14.30;99.90
45807;DHT22;31507;51.494;7.518;2022-07-23T04:53:27;14.40;99.90
45807;DHT22;31507;51.494;7.518;2022-07-23T04:55:53;14.40;99.90
45807;DHT22;31507;51.494;7.518;2022-07-23T04:58:19;14.50;99.90
45807;DHT22;31507;51.494;7.518;2022-07-23T05:00:44;14.50;99.90
45807;DHT22;31507;51.494;7.518;2022-07-23T05:03:10;14.50;99.90
45807;DHT22;31507;51.494;7.518;2022-07-23T05:05:36;14.50;99.90
45807;DHT22;31507;51.494;7.518;2022-07-23T05:08:02;14.60;99.90
45807;DHT22;31507;51.494;7.518;2022-07-23T05:10:27;14.60;99.90
45807;DHT22;31507;51.494;7.518;2022-07-23T05:12:53;14.60;99.90
45807;DHT22;31507;51.494;7.518;2022-07-23T05:15:18;14.70;99.90
45807;DHT22;31507;51.494;7.518;2022-07-23T05:17:44;14.70;99.90
45807;DHT22;31507;51.494;7.518;2022-07-23T05:20:10;14.70;99.90
45807;DHT22;31507;51.494;7.518;2022-07-23T05:22:36;14.70;99.90
45807;DHT22;31507;51.494;7.518;2022-07-23T05:25:01;14.70;99.90
45807;DHT22;31507;51.494;7.518;2022-07-23T05:27:27;14.80;99.90
45807;DHT22;31507;51.494;7.518;2022-07-23T05:29:53;14.80;99.90
45807;DHT22;31507;51.494;7.518;2022-07-23T05:32:18;14.90;99.90
45807;DHT22;31507;51.494;7.518;2022-07-23T05:34:44;14.90;99.90
45807;DHT22;31507;51.494;7.518;2022-07-23T05:37:10;14.90;99.90
45807;DHT22;31507;51.494;7.518;2022-07-23T05:39:35;15.00;99.90
45807;DHT22;31507;51.494;7.518;2022-07-23T05:42:01;15.00;99.90
45807;DHT22;31507;51.494;7.518;2022-07-23T05:44:27;15.00;99.90
45807;DHT22;31507;51.494;7.518;2022-07-23T05:46:53;15.00;99.90
45807;DHT22;31507;51.494;7.518;2022-07-23T05:49:18;15.10;99.90
45807;DHT22;31507;51.494;7.518;2022-07-23T05:51:44;15.00;99.90
45807;DHT22;31507;51.494;7.518;2022-07-23T05:54:10;15.10;99.90
45807;DHT22;31507;51.494;7.518;2022-07-23T05:56:36;15.10;99.90
45807;DHT22;31507;51.494;7.518;2022-07-23T05:59:02;15.10;99.90
45807;DHT22;31507;51.494;7.518;2022-07-23T06:01:27;15.10;99.90
45807;DHT22;31507;51.494;7.518;2022-07-23T06:03:53;15.10;99.90
45807;DHT22;31507;51.494;7.518;2022-07-23T06:06:18;15.20;99.90
45807;DHT22;31507;51.494;7.518;2022-07-23T06:08:44;15.30;99.90
45807;DHT22;31507;51.494;7.518;2022-07-23T06:11:10;15.40;99.90
45807;DHT22;31507;51.494;7.518;2022-07-23T06:13:36;15.40;99.90
45807;DHT22;31507;51.494;7.518;2022-07-23T06:16:02;15.50;99.90
45807;DHT22;31507;51.494;7.518;2022-07-23T06:18:27;15.60;99.90
45807;DHT22;31507;51.494;7.518;2022-07-23T06:20:53;15.70;99.90
45807;DHT22;31507;51.494;7.518;2022-07-23T06:23:19;15.70;99.90
45807;DHT22;31507;51.494;7.518;2022-07-23T06:25:45;15.80;99.90
45807;DHT22;31507;51.494;7.518;2022-07-23T06:28:11;15.90;99.90
45807;DHT22;31507;51.494;7.518;2022-07-23T06:30:37;16.10;99.90
45807;DHT22;31507;51.494;7.518;2022-07-23T06:33:03;16.20;99.90
45807;DHT22;31507;51.494;7.518;2022-07-23T06:35:28;16.20;99.90
45807;DHT22;31507;51.494;7.518;2022-07-23T06:37:54;16.40;99.90
45807;DHT22;31507;51.494;7.518;2022-07-23T06:40:20;16.50;99.90
45807;DHT22;31507;51.494;7.518;2022-07-23T06:42:46;16.30;99.90
45807;DHT22;31507;51.494;7.518;2022-07-23T06:45:12;16.40;99.90
45807;DHT22;31507;51.494;7.518;2022-07-23T06:47:38;16.40;99.90
45807;DHT22;31507;51.494;7.518;2022-07-23T06:50:05;16.50;99.90
45807;DHT22;31507;51.494;7.518;2022-07-23T06:52:30;16.50;99.90
45807;DHT22;31507;51.494;7.518;2022-07-23T06:54:56;16.70;99.90
45807;DHT22;31507;51.494;7.518;2022-07-23T06:57:22;16.80;99.90
45807;DHT22;31507;51.494;7.518;2022-07-23T06:59:47;16.90;99.90
45807;DHT22;31507;51.494;7.518;2022-07-23T07:02:13;17.00;99.90
45807;DHT22;31507;51.494;7.518;2022-07-23T07:04:38;17.10;99.90
45807;DHT22;31507;51.494;7.518;2022-07-23T07:07:04;17.00;99.90
45807;DHT22;31507;51.494;7.518;2022-07-23T07:09:30;17.00;99.90
45807;DHT22;31507;51.494;7.518;2022-07-23T07:11:58;17.10;99.90
45807;DHT22;31507;51.494;7.518;2022-07-23T07:14:24;17.20;99.90
45807;DHT22;31507;51.494;7.518;2022-07-23T07:16:50;17.30;99.90
45807;DHT22;31507;51.494;7.518;2022-07-23T07:19:15;17.40;99.90
45807;DHT22;31507;51.494;7.518;2022-07-23T07:21:41;17.50;99.90
45807;DHT22;31507;51.494;7.518;2022-07-23T07:24:07;17.60;99.90
45807;DHT22;31507;51.494;7.518;2022-07-23T07:26:33;17.60;99.90
45807;DHT22;31507;51.494;7.518;2022-07-23T07:28:59;17.70;99.90
45807;DHT22;31507;51.494;7.518;2022-07-23T07:31:25;17.90;99.90
45807;DHT22;31507;51.494;7.518;2022-07-23T07:33:51;18.00;99.90
45807;DHT22;31507;51.494;7.518;2022-07-23T07:36:17;18.10;99.90
45807;DHT22;31507;51.494;7.518;2022-07-23T07:38:42;18.10;99.90
45807;DHT22;31507;51.494;7.518;2022-07-23T07:41:08;18.30;99.90
45807;DHT22;31507;51.494;7.518;2022-07-23T07:43:35;18.30;99.90
45807;DHT22;31507;51.494;7.518;2022-07-23T07:46:01;18.30;99.90
45807;DHT22;31507;51.494;7.518;2022-07-23T07:48:27;18.30;99.90
45807;DHT22;31507;51.494;7.518;2022-07-23T07:50:53;18.60;99.90
45807;DHT22;31507;51.494;7.518;2022-07-23T07:53:19;18.90;99.90
45807;DHT22;31507;51.494;7.518;2022-07-23T07:55:44;19.10;99.90
45807;DHT22;31507;51.494;7.518;2022-07-23T07:58:11;19.20;99.90
45807;DHT22;31507;51.494;7.518;2022-07-23T08:00:36;19.10;99.90
45807;DHT22;31507;51.494;7.518;2022-07-23T08:03:02;19.30;99.90
45807;DHT22;31507;51.494;7.518;2022-07-23T08:05:30;19.80;99.90
45807;DHT22;31507;51.494;7.518;2022-07-23T08:07:56;20.20;99.90
45807;DHT22;31507;51.494;7.518;2022-07-23T08:10:23;20.90;99.90
45807;DHT22;31507;51.494;7.518;2022-07-23T08:12:53;20.80;99.90
45807;DHT22;31507;51.494;7.518;2022-07-23T08:15:20;20.90;99.90
45807;DHT22;31507;51.494;7.518;2022-07-23T08:17:47;21.20;99.90
45807;DHT22;31507;51.494;7.518;2022-07-23T08:20:14;21.70;99.90
45807;DHT22;31507;51.494;7.518;2022-07-23T08:22:54;22.30;99.90
45807;DHT22;31507;51.494;7.518;2022-07-23T08:25:23;22.80;99.90
45807;DHT22;31507;51.494;7.518;2022-07-23T08:27:49;23.40;99.90
45807;DHT22;31507;51.494;7.518;2022-07-23T08:30:15;23.40;99.90
45807;DHT22;31507;51.494;7.518;2022-07-23T08:32:56;22.80;99.90
45807;DHT22;31507;51.494;7.518;2022-07-23T08:35:32;22.10;99.90
45807;DHT22;31507;51.494;7.518;2022-07-23T08:37:59;21.30;99.90
45807;DHT22;31507;51.494;7.518;2022-07-23T08:40:30;21.00;99.90
45807;DHT22;31507;51.494;7.518;2022-07-23T08:42:57;21.00;99.90
45807;DHT22;31507;51.494;7.518;2022-07-23T08:45:25;21.30;99.90
45807;DHT22;31507;51.494;7.518;2022-07-23T08:47:56;21.60;99.90
45807;DHT22;31507;51.494;7.518;2022-07-23T08:50:23;21.40;99.90
45807;DHT22;31507;51.494;7.518;2022-07-23T08:52:50;20.80;99.90
45807;DHT22;31507;51.494;7.518;2022-07-23T08:55:18;20.50;99.90
45807;DHT22;31507;51.494;7.518;2022-07-23T08:57:45;20.20;99.90
45807;DHT22;31507;51.494;7.518;2022-07-23T09:00:12;20.20;99.90
45807;DHT22;31507;51.494;7.518;2022-07-23T09:02:42;20.10;99.90
45807;DHT22;31507;51.494;7.518;2022-07-23T09:05:09;20.10;99.90
45807;DHT22;31507;51.494;7.518;2022-07-23T09:07:37;20.50;99.90
45807;DHT22;31507;51.494;7.518;2022-07-23T09:10:08;21.20;99.90
45807;DHT22;31507;51.494;7.518;2022-07-23T09:12:35;22.00;99.90
45807;DHT22;31507;51.494;7.518;2022-07-23T09:15:06;22.90;99.90
45807;DHT22;31507;51.494;7.518;2022-07-23T09:17:41;23.50;99.90
45807;DHT22;31507;51.494;7.518;2022-07-23T09:20:14;24.20;99.90
45807;DHT22;31507;51.494;7.518;2022-07-23T09:22:44;24.50;97.10
45807;DHT22;31507;51.494;7.518;2022-07-23T09:25:16;24.30;97.10
45807;DHT22;31507;51.494;7.518;2022-07-23T09:30:16;23.40;97.90
45807;DHT22;31507;51.494;7.518;2022-07-23T09:32:42;23.30;98.70
45807;DHT22;31507;51.494;7.518;2022-07-23T09:35:08;23.00;97.50
45807;DHT22;31507;51.494;7.518;2022-07-23T09:37:34;22.90;95.70
45807;DHT22;31507;51.494;7.518;2022-07-23T09:40:08;23.00;97.30
45807;DHT22;31507;51.494;7.518;2022-07-23T09:42:34;23.40;93.80
45807;DHT22;31507;51.494;7.518;2022-07-23T09:45:00;23.10;95.20
45807;DHT22;31507;51.494;7.518;2022-07-23T09:47:28;23.40;96.20
45807;DHT22;31507;51.494;7.518;2022-07-23T09:50:01;23.60;95.60
45807;DHT22;31507;51.494;7.518;2022-07-23T09:52:43;24.30;94.50
45807;DHT22;31507;51.494;7.518;2022-07-23T09:55:09;25.00;94.50
45807;DHT22;31507;51.494;7.518;2022-07-23T09:57:35;25.20;92.60
45807;DHT22;31507;51.494;7.518;2022-07-23T10:00:04;24.50;92.90
45807;DHT22;31507;51.494;7.518;2022-07-23T10:02:34;23.70;92.60
45807;DHT22;31507;51.494;7.518;2022-07-23T10:05:01;22.80;94.00
45807;DHT22;31507;51.494;7.518;2022-07-23T10:07:27;22.30;95.20
45807;DHT22;31507;51.494;7.518;2022-07-23T10:09:57;22.30;96.00
45807;DHT22;31507;51.494;7.518;2022-07-23T10:12:24;23.40;95.80
45807;DHT22;31507;51.494;7.518;2022-07-23T10:14:57;24.00;93.00
45807;DHT22;31507;51.494;7.518;2022-07-23T10:17:23;24.40;91.60
45807;DHT22;31507;51.494;7.518;2022-07-23T10:19:49;24.30;88.70
45807;DHT22;31507;51.494;7.518;2022-07-23T10:22:20;23.50;91.20
45807;DHT22;31507;51.494;7.518;2022-07-23T10:25:03;23.40;92.00
45807;DHT22;31507;51.494;7.518;2022-07-23T10:27:37;23.70;90.60
45807;DHT22;31507;51.494;7.518;2022-07-23T10:30:09;23.90;86.70
45807;DHT22;31507;51.494;7.518;2022-07-23T10:40:55;23.90;88.60
45807;DHT22;31507;51.494;7.518;2022-07-23T10:43:21;24.50;88.90
45807;DHT22;31507;51.494;7.518;2022-07-23T10:45:47;25.20;86.00
45807;DHT22;31507;51.494;7.518;2022-07-23T10:48:20;25.50;84.50
45807;DHT22;31507;51.494;7.518;2022-07-23T10:51:10;25.80;82.60
45807;DHT22;31507;51.494;7.518;2022-07-23T10:59:04;25.80;80.20
45807;DHT22;31507;51.494;7.518;2022-07-23T11:01:35;25.80;79.90
45807;DHT22;31507;51.494;7.518;2022-07-23T11:04:02;25.60;79.10
45807;DHT22;31507;51.494;7.518;2022-07-23T11:09:27;25.40;82.00
45807;DHT22;31507;51.494;7.518;2022-07-23T11:17:26;26.30;80.10
45807;DHT22;31507;51.494;7.518;2022-07-23T11:22:40;26.40;76.40
45807;DHT22;31507;51.494;7.518;2022-07-23T11:25:13;26.50;78.50
45807;DHT22;31507;51.494;7.518;2022-07-23T11:27:44;25.90;78.70
45807;DHT22;31507;51.494;7.518;2022-07-23T11:33:15;25.30;79.10
45807;DHT22;31507;51.494;7.518;2022-07-23T11:35:59;25.50;80.50
45807;DHT22;31507;51.494;7.518;2022-07-23T11:38:26;25.20;80.00
45807;DHT22;31507;51.494;7.518;2022-07-23T11:40:53;24.60;82.10
45807;DHT22;31507;51.494;7.518;2022-07-23T11:43:21;25.10;81.50
45807;DHT22;31507;51.494;7.518;2022-07-23T11:45:49;25.60;80.10
45807;DHT22;31507;51.494;7.518;2022-07-23T11:50:46;26.30;78.30
45807;DHT22;31507;51.494;7.518;2022-07-23T11:53:16;26.40;77.30
45807;DHT22;31507;51.494;7.518;2022-07-23T11:55:46;26.30;76.60
45807;DHT22;31507;51.494;7.518;2022-07-23T11:58:11;26.30;76.30
45807;DHT22;31507;51.494;7.518;2022-07-23T12:00:40;26.60;75.90
45807;DHT22;31507;51.494;7.518;2022-07-23T12:03:06;26.70;75.20
45807;DHT22;31507;51.494;7.518;2022-07-23T12:05:34;26.60;75.10
45807;DHT22;31507;51.494;7.518;2022-07-23T12:08:04;26.80;75.50
45807;DHT22;31507;51.494;7.518;2022-07-23T12:10:35;26.70;73.70
45807;DHT22;31507;51.494;7.518;2022-07-23T12:13:06;26.70;72.70
45807;DHT22;31507;51.494;7.518;2022-07-23T12:18:00;26.80;74.00
45807;DHT22;31507;51.494;7.518;2022-07-23T12:20:31;26.30;74.30
45807;DHT22;31507;51.494;7.518;2022-07-23T12:23:00;26.30;74.90
45807;DHT22;31507;51.494;7.518;2022-07-23T12:25:29;26.40;74.10
45807;DHT22;31507;51.494;7.518;2022-07-23T12:28:06;25.90;72.80
45807;DHT22;31507;51.494;7.518;2022-07-23T12:33:07;26.40;73.00
45807;DHT22;31507;51.494;7.518;2022-07-23T12:38:04;26.60;73.50
45807;DHT22;31507;51.494;7.518;2022-07-23T12:40:36;26.80;72.60
45807;DHT22;31507;51.494;7.518;2022-07-23T12:43:08;26.60;72.40
45807;DHT22;31507;51.494;7.518;2022-07-23T12:45:46;26.20;73.10
45807;DHT22;31507;51.494;7.518;2022-07-23T12:48:24;26.80;71.70
45807;DHT22;31507;51.494;7.518;2022-07-23T12:51:02;26.80;71.90
45807;DHT22;31507;51.494;7.518;2022-07-23T12:53:36;26.80;72.40
45807;DHT22;31507;51.494;7.518;2022-07-23T13:06:42;27.10;69.00
45807;DHT22;31507;51.494;7.518;2022-07-23T13:09:10;27.10;71.70
45807;DHT22;31507;51.494;7.518;2022-07-23T13:11:36;26.50;72.10
45807;DHT22;31507;51.494;7.518;2022-07-23T13:14:02;26.00;72.60
45807;DHT22;31507;51.494;7.518;2022-07-23T13:16:31;25.70;73.80
45807;DHT22;31507;51.494;7.518;2022-07-23T13:18:58;26.00;72.00
45807;DHT22;31507;51.494;7.518;2022-07-23T13:21:24;26.20;71.90
45807;DHT22;31507;51.494;7.518;2022-07-23T13:23:50;26.40;72.10
45807;DHT22;31507;51.494;7.518;2022-07-23T13:26:16;26.70;72.10
45807;DHT22;31507;51.494;7.518;2022-07-23T13:28:41;26.50;71.50
45807;DHT22;31507;51.494;7.518;2022-07-23T13:31:07;26.20;70.40
45807;DHT22;31507;51.494;7.518;2022-07-23T13:33:34;26.40;71.60
45807;DHT22;31507;51.494;7.518;2022-07-23T13:36:00;27.10;70.80
45807;DHT22;31507;51.494;7.518;2022-07-23T13:38:26;27.30;68.80
45807;DHT22;31507;51.494;7.518;2022-07-23T13:40:52;27.40;69.50
45807;DHT22;31507;51.494;7.518;2022-07-23T13:43:20;27.70;68.90
45807;DHT22;31507;51.494;7.518;2022-07-23T13:45:46;27.80;69.80
45807;DHT22;31507;51.494;7.518;2022-07-23T13:48:13;28.00;69.80
45807;DHT22;31507;51.494;7.518;2022-07-23T13:50:40;28.10;69.00
45807;DHT22;31507;51.494;7.518;2022-07-23T13:53:09;27.70;69.10
45807;DHT22;31507;51.494;7.518;2022-07-23T13:55:38;26.80;70.30
45807;DHT22;31507;51.494;7.518;2022-07-23T13:58:05;27.00;70.30
45807;DHT22;31507;51.494;7.518;2022-07-23T14:00:33;27.30;68.80
45807;DHT22;31507;51.494;7.518;2022-07-23T14:02:59;27.50;68.60
45807;DHT22;31507;51.494;7.518;2022-07-23T14:05:26;27.50;67.90
45807;DHT22;31507;51.494;7.518;2022-07-23T14:07:52;27.20;68.60
45807;DHT22;31507;51.494;7.518;2022-07-23T14:10:19;27.00;68.70
45807;DHT22;31507;51.494;7.518;2022-07-23T14:12:47;27.50;68.00
45807;DHT22;31507;51.494;7.518;2022-07-23T14:15:13;27.60;68.20
45807;DHT22;31507;51.494;7.518;2022-07-23T14:17:40;28.10;68.30
45807;DHT22;31507;51.494;7.518;2022-07-23T14:20:07;28.50;67.00
45807;DHT22;31507;51.494;7.518;2022-07-23T14:22:33;28.80;67.60
45807;DHT22;31507;51.494;7.518;2022-07-23T14:24:58;29.30;66.00
45807;DHT22;31507;51.494;7.518;2022-07-23T14:27:26;29.30;65.10
45807;DHT22;31507;51.494;7.518;2022-07-23T14:29:52;29.60;65.30
45807;DHT22;31507;51.494;7.518;2022-07-23T14:32:18;29.00;65.60
45807;DHT22;31507;51.494;7.518;2022-07-23T14:34:44;28.90;65.60
45807;DHT22;31507;51.494;7.518;2022-07-23T14:37:10;29.20;66.30
45807;DHT22;31507;51.494;7.518;2022-07-23T14:39:37;29.10;65.00
45807;DHT22;31507;51.494;7.518;2022-07-23T14:42:06;29.30;66.10
45807;DHT22;31507;51.494;7.518;2022-07-23T14:44:32;29.60;65.20
45807;DHT22;31507;51.494;7.518;2022-07-23T14:46:58;29.80;64.60
45807;DHT22;31507;51.494;7.518;2022-07-23T14:49:25;29.60;65.10
45807;DHT22;31507;51.494;7.518;2022-07-23T14:51:51;29.40;64.20
45807;DHT22;31507;51.494;7.518;2022-07-23T14:54:17;29.40;63.60
45807;DHT22;31507;51.494;7.518;2022-07-23T14:56:42;29.10;63.40
45807;DHT22;31507;51.494;7.518;2022-07-23T14:59:08;29.40;63.80
45807;DHT22;31507;51.494;7.518;2022-07-23T15:01:35;29.30;64.30
45807;DHT22;31507;51.494;7.518;2022-07-23T15:04:02;29.10;64.00
45807;DHT22;31507;51.494;7.518;2022-07-23T15:06:28;29.40;63.10
45807;DHT22;31507;51.494;7.518;2022-07-23T15:08:54;29.40;63.50
45807;DHT22;31507;51.494;7.518;2022-07-23T15:11:19;29.50;64.00
45807;DHT22;31507;51.494;7.518;2022-07-23T15:13:45;29.80;62.30
45807;DHT22;31507;51.494;7.518;2022-07-23T15:16:11;29.60;62.70
45807;DHT22;31507;51.494;7.518;2022-07-23T15:18:37;28.90;63.00
45807;DHT22;31507;51.494;7.518;2022-07-23T15:21:03;28.10;64.20
45807;DHT22;31507;51.494;7.518;2022-07-23T15:23:29;27.30;65.00
45807;DHT22;31507;51.494;7.518;2022-07-23T15:25:55;27.20;65.40
45807;DHT22;31507;51.494;7.518;2022-07-23T15:28:21;27.40;65.20
45807;DHT22;31507;51.494;7.518;2022-07-23T15:30:48;28.00;65.80
45807;DHT22;31507;51.494;7.518;2022-07-23T15:33:14;28.40;64.10
45807;DHT22;31507;51.494;7.518;2022-07-23T15:35:39;28.50;62.80
45807;DHT22;31507;51.494;7.518;2022-07-23T15:38:05;28.30;62.80
45807;DHT22;31507;51.494;7.518;2022-07-23T15:40:31;28.10;63.60
45807;DHT22;31507;51.494;7.518;2022-07-23T15:42:56;27.40;64.70
45807;DHT22;31507;51.494;7.518;2022-07-23T15:45:22;27.60;65.60
45807;DHT22;31507;51.494;7.518;2022-07-23T15:47:48;27.50;65.10
45807;DHT22;31507;51.494;7.518;2022-07-23T15:50:16;27.20;65.50
45807;DHT22;31507;51.494;7.518;2022-07-23T15:52:42;27.00;65.60
45807;DHT22;31507;51.494;7.518;2022-07-23T15:55:08;27.30;64.30
45807;DHT22;31507;51.494;7.518;2022-07-23T15:57:35;26.80;64.30
45807;DHT22;31507;51.494;7.518;2022-07-23T16:00:01;26.30;65.70
45807;DHT22;31507;51.494;7.518;2022-07-23T16:02:26;25.90;67.70
45807;DHT22;31507;51.494;7.518;2022-07-23T16:04:52;25.50;67.90
45807;DHT22;31507;51.494;7.518;2022-07-23T16:07:19;25.20;68.60
45807;DHT22;31507;51.494;7.518;2022-07-23T16:09:45;25.40;68.20
45807;DHT22;31507;51.494;7.518;2022-07-23T16:12:11;25.90;67.50
45807;DHT22;31507;51.494;7.518;2022-07-23T16:14:37;26.60;68.30
45807;DHT22;31507;51.494;7.518;2022-07-23T16:17:03;27.10;67.00
45807;DHT22;31507;51.494;7.518;2022-07-23T16:19:30;27.60;65.90